Time;durP1;ratioP1;P1;durP2;ratioP2;P2;SDS_P1;SDS_P2;PMS_P1;PMS_P2;Temp;Humidity;BMP_temperature;BMP_pressure;BME280_temperature;BME280_humidity;BME280_pressure;Samples;Min_cycle;Max_cycle;Signal;HPM_P1;HPM_P2
2023/12/26 00:01:54;;;;;;;16.33;8.85;;;6.50;99.90;;;;;;4895547;29;20036;-77
2023/12/26 00:04:20;;;;;;;19.08;9.15;;;6.50;99.90;;;;;;4896607;29;20028;-77
2023/12/26 00:06:46;;;;;;;17.15;9.77;;;6.50;99.90;;;;;;4895098;29;20505;-78
2023/12/26 00:09:12;;;;;;;13.77;8.90;;;6.60;99.90;;;;;;4894720;29;20035;-78
2023/12/26 00:11:45;;;;;;;12.38;7.85;;;6.60;99.90;;;;;;4895266;29;20032;-77
2023/12/26 00:14:12;;;;;;;15.52;7.55;;;6.70;99.90;;;;;;4896551;29;20122;-76
2023/12/26 00:16:39;;;;;;;13.85;6.80;;;6.60;99.90;;;;;;4895117;29;21181;-77
2023/12/26 00:19:05;;;;;;;15.43;7.47;;;6.70;99.90;;;;;;4894559;29;20873;-77
2023/12/26 00:21:31;;;;;;;16.80;7.97;;;6.70;99.90;;;;;;4893368;29;20879;-78
2023/12/26 00:23:57;;;;;;;18.42;8.55;;;6.70;99.90;;;;;;4896220;29;20144;-76
2023/12/26 00:26:23;;;;;;;13.85;8.30;;;6.70;99.90;;;;;;4895878;29;20055;-76
2023/12/26 00:28:48;;;;;;;16.50;8.05;;;6.80;99.90;;;;;;4898679;29;20058;-76
2023/12/26 00:31:14;;;;;;;14.05;8.60;;;6.80;99.90;;;;;;4897750;29;20032;-76
2023/12/26 00:33:40;;;;;;;10.93;7.25;;;6.80;99.90;;;;;;4898882;29;20087;-76
2023/12/26 00:36:11;;;;;;;15.95;7.97;;;6.80;99.90;;;;;;4897988;29;20079;-76
2023/12/26 00:38:37;;;;;;;18.45;8.20;;;6.70;99.90;;;;;;4896712;29;20035;-76
2023/12/26 00:41:02;;;;;;;14.18;7.93;;;6.60;99.90;;;;;;4897370;29;20028;-76
2023/12/26 00:43:28;;;;;;;17.40;8.32;;;6.70;99.90;;;;;;4899972;29;20114;-76
2023/12/26 00:45:54;;;;;;;14.73;8.50;;;6.70;99.90;;;;;;4898857;29;21035;-76
2023/12/26 00:48:19;;;;;;;20.67;8.10;;;6.70;99.90;;;;;;4897042;29;20368;-76
2023/12/26 00:50:45;;;;;;;19.88;8.60;;;6.70;99.90;;;;;;4898501;29;20075;-76
2023/12/26 00:53:11;;;;;;;13.85;7.65;;;6.70;99.90;;;;;;4897639;29;20040;-76
2023/12/26 00:55:37;;;;;;;16.48;9.02;;;6.70;99.90;;;;;;4898015;29;20486;-76
2023/12/26 00:58:03;;;;;;;16.08;9.40;;;6.70;99.90;;;;;;4898728;29;20035;-76
2023/12/26 01:00:28;;;;;;;18.88;8.90;;;6.80;99.90;;;;;;4898345;29;20040;-76
2023/12/26 01:02:54;;;;;;;15.48;8.48;;;6.80;99.90;;;;;;4897766;29;20546;-76
2023/12/26 01:05:20;;;;;;;15.40;7.72;;;6.80;99.90;;;;;;4899162;29;20391;-77
2023/12/26 01:07:46;;;;;;;14.18;7.22;;;6.70;99.90;;;;;;4896739;29;20521;-76
2023/12/26 01:10:12;;;;;;;15.25;8.48;;;6.80;99.90;;;;;;4897389;29;20040;-76
2023/12/26 01:12:37;;;;;;;14.98;8.90;;;6.90;99.90;;;;;;4899474;29;20368;-76
2023/12/26 01:15:04;;;;;;;13.98;8.30;;;6.80;99.90;;;;;;4898086;29;20099;-76
2023/12/26 01:17:29;;;;;;;15.55;9.20;;;6.70;99.90;;;;;;4896529;29;20032;-76
2023/12/26 01:19:56;;;;;;;17.55;8.23;;;6.80;99.90;;;;;;4899542;29;20162;-77
2023/12/26 01:22:22;;;;;;;12.43;8.30;;;6.80;99.90;;;;;;4897567;29;20172;-77
2023/12/26 01:24:50;;;;;;;13.18;7.85;;;6.80;99.90;;;;;;4897618;29;20127;-77
2023/12/26 01:27:16;;;;;;;14.25;8.98;;;6.70;99.90;;;;;;4898854;29;20170;-77
2023/12/26 01:29:41;;;;;;;13.82;7.63;;;6.80;99.90;;;;;;4896889;29;20024;-76
2023/12/26 01:32:07;;;;;;;15.60;6.97;;;6.80;99.90;;;;;;4897368;29;20562;-77
2023/12/26 01:34:33;;;;;;;15.68;7.75;;;6.70;99.90;;;;;;4899401;29;20091;-76
2023/12/26 01:36:58;;;;;;;14.10;7.88;;;6.60;99.90;;;;;;4896770;29;20039;-76
2023/12/26 01:39:26;;;;;;;14.98;7.35;;;6.60;99.90;;;;;;4897409;29;20028;-77
2023/12/26 01:41:51;;;;;;;20.30;8.35;;;6.60;99.90;;;;;;4899083;29;20369;-77
2023/12/26 01:44:17;;;;;;;16.05;7.57;;;6.70;99.90;;;;;;4897170;29;20099;-77
2023/12/26 01:46:43;;;;;;;11.32;7.20;;;6.80;99.90;;;;;;4896369;29;20601;-76
2023/12/26 01:49:10;;;;;;;12.32;6.93;;;6.80;99.90;;;;;;4901011;29;20689;-77
2023/12/26 01:51:36;;;;;;;12.73;7.13;;;6.70;99.90;;;;;;4901835;29;20111;-76
2023/12/26 01:54:02;;;;;;;15.43;7.25;;;6.70;99.90;;;;;;4900757;29;20119;-76
2023/12/26 01:56:29;;;;;;;16.55;8.48;;;6.70;99.90;;;;;;4901217;29;20036;-76
2023/12/26 01:58:55;;;;;;;13.45;7.43;;;6.60;99.90;;;;;;4900909;29;20832;-76
2023/12/26 02:01:21;;;;;;;14.35;7.65;;;6.60;99.90;;;;;;4901322;29;20039;-77
2023/12/26 02:03:47;;;;;;;14.63;7.32;;;6.60;99.90;;;;;;4902354;29;20040;-76
2023/12/26 02:06:14;;;;;;;16.90;7.00;;;6.50;99.90;;;;;;4899862;29;20687;-76
2023/12/26 02:08:41;;;;;;;18.92;6.95;;;6.60;99.90;;;;;;4898745;29;20072;-76
2023/12/26 02:11:07;;;;;;;10.98;6.28;;;6.60;99.90;;;;;;4901934;29;20084;-77
2023/12/26 02:13:36;;;;;;;12.32;7.15;;;6.60;99.90;;;;;;4899649;29;20115;-77
2023/12/26 02:16:10;;;;;;;16.60;7.22;;;6.60;99.90;;;;;;4900618;29;20152;-76
2023/12/26 02:18:36;;;;;;;13.27;7.00;;;6.60;99.90;;;;;;4901936;29;20131;-77
2023/12/26 02:21:03;;;;;;;16.65;7.50;;;6.60;99.90;;;;;;4901228;29;20060;-76
2023/12/26 02:23:31;;;;;;;15.05;7.70;;;6.70;99.90;;;;;;4900813;29;20070;-76
2023/12/26 02:25:58;;;;;;;14.98;9.45;;;6.50;99.90;;;;;;4899590;29;20054;-76
2023/12/26 02:28:24;;;;;;;12.88;8.23;;;6.30;99.90;;;;;;4901505;29;20112;-76
2023/12/26 02:30:51;;;;;;;15.13;8.18;;;6.40;99.90;;;;;;4900087;29;20044;-77
2023/12/26 02:33:17;;;;;;;18.02;9.45;;;6.40;99.90;;;;;;4900659;29;20179;-77
2023/12/26 02:35:43;;;;;;;16.05;8.75;;;6.40;99.90;;;;;;4901521;29;20036;-76
2023/12/26 02:38:10;;;;;;;17.13;7.70;;;6.40;99.90;;;;;;4899042;29;20160;-76
2023/12/26 02:40:35;;;;;;;14.45;8.15;;;6.40;99.90;;;;;;4901418;29;20036;-76
2023/12/26 02:43:01;;;;;;;13.85;7.95;;;6.40;99.90;;;;;;4899606;29;20088;-76
2023/12/26 02:45:27;;;;;;;15.43;8.45;;;6.50;99.90;;;;;;4900254;29;20021;-76
2023/12/26 02:47:52;;;;;;;15.52;8.40;;;6.40;99.90;;;;;;4900254;29;20099;-76
2023/12/26 02:50:18;;;;;;;13.48;8.32;;;6.30;99.90;;;;;;4900306;29;20489;-76
2023/12/26 02:52:44;;;;;;;16.73;9.63;;;6.30;99.90;;;;;;4900259;29;20448;-76
2023/12/26 02:55:09;;;;;;;16.48;9.48;;;6.20;99.90;;;;;;4901109;29;20343;-76
2023/12/26 02:57:35;;;;;;;15.90;8.90;;;6.10;99.90;;;;;;4898158;29;20074;-76
2023/12/26 03:00:01;;;;;;;17.80;8.88;;;6.10;99.90;;;;;;4899877;29;20032;-76
2023/12/26 03:02:26;;;;;;;15.50;9.20;;;6.30;99.90;;;;;;4901046;29;20125;-76
2023/12/26 03:04:52;;;;;;;15.43;9.70;;;6.30;99.90;;;;;;4900239;29;20032;-76
2023/12/26 03:07:17;;;;;;;19.33;9.82;;;6.20;99.90;;;;;;4898284;29;20483;-76
2023/12/26 03:09:43;;;;;;;15.05;8.57;;;6.20;99.90;;;;;;4900320;29;20044;-76
2023/12/26 03:12:09;;;;;;;18.10;10.23;;;6.20;99.90;;;;;;4899577;29;20087;-76
2023/12/26 03:14:34;;;;;;;17.50;10.10;;;6.10;99.90;;;;;;4900324;29;20488;-76
2023/12/26 03:17:00;;;;;;;17.92;10.10;;;6.20;99.90;;;;;;4900101;29;20052;-77
2023/12/26 03:19:26;;;;;;;16.30;9.50;;;6.20;99.90;;;;;;4898156;29;21022;-77
2023/12/26 03:21:51;;;;;;;17.70;9.85;;;6.20;99.90;;;;;;4900118;29;20123;-76
2023/12/26 03:24:17;;;;;;;19.50;9.25;;;6.30;99.90;;;;;;4900266;29;20043;-76
2023/12/26 03:26:43;;;;;;;18.80;10.57;;;6.20;99.90;;;;;;4897959;29;20055;-76
2023/12/26 03:29:08;;;;;;;17.67;10.05;;;6.30;99.90;;;;;;4897807;29;20566;-76
2023/12/26 03:31:39;;;;;;;21.02;10.05;;;6.30;99.90;;;;;;4899918;29;20044;-76
2023/12/26 03:34:07;;;;;;;18.40;10.73;;;6.20;99.90;;;;;;4899471;29;20183;-76
2023/12/26 03:36:32;;;;;;;16.25;10.75;;;6.20;99.90;;;;;;4898507;29;20503;-76
2023/12/26 03:38:58;;;;;;;16.92;10.48;;;6.10;99.90;;;;;;4900001;29;20036;-76
2023/12/26 03:41:24;;;;;;;20.73;10.63;;;6.00;99.90;;;;;;4899114;29;20036;-76
2023/12/26 03:43:49;;;;;;;16.38;10.13;;;6.00;99.90;;;;;;4898322;29;20051;-76
2023/12/26 03:46:15;;;;;;;16.45;9.63;;;6.10;99.90;;;;;;4899540;29;20040;-76
2023/12/26 03:48:41;;;;;;;13.77;9.38;;;6.10;99.90;;;;;;4898118;29;20036;-76
2023/12/26 03:51:06;;;;;;;17.60;8.98;;;6.10;99.90;;;;;;4900227;29;20040;-76
2023/12/26 03:53:32;;;;;;;17.92;9.55;;;6.20;99.90;;;;;;4896865;29;20040;-76
2023/12/26 03:55:57;;;;;;;14.88;9.50;;;6.20;99.90;;;;;;4897985;29;20043;-76
2023/12/26 03:58:23;;;;;;;14.05;7.97;;;6.10;99.90;;;;;;4899651;29;20103;-76
2023/12/26 04:00:49;;;;;;;14.02;9.45;;;6.20;99.90;;;;;;4898485;29;20040;-76
2023/12/26 04:03:16;;;;;;;14.48;8.30;;;6.30;99.90;;;;;;4895997;29;20047;-76
2023/12/26 04:05:41;;;;;;;13.80;8.57;;;6.40;99.90;;;;;;4896197;29;20123;-76
2023/12/26 04:08:07;;;;;;;14.55;8.93;;;6.40;99.90;;;;;;4894568;29;20040;-78
2023/12/26 04:10:33;;;;;;;16.10;9.45;;;6.30;99.90;;;;;;4894088;29;20032;-77
2023/12/26 04:12:58;;;;;;;19.77;9.93;;;6.10;99.90;;;;;;4895881;29;20174;-78
2023/12/26 04:15:24;;;;;;;15.13;8.10;;;6.10;99.90;;;;;;4895126;29;20028;-78
2023/12/26 04:17:50;;;;;;;16.02;9.55;;;6.20;99.90;;;;;;4892433;29;20491;-76
2023/12/26 04:20:16;;;;;;;17.85;10.10;;;6.20;99.90;;;;;;4894895;29;21001;-76
2023/12/26 04:22:41;;;;;;;19.15;9.98;;;6.30;99.90;;;;;;4875545;29;20048;-76
2023/12/26 04:25:07;;;;;;;18.17;9.88;;;6.10;99.90;;;;;;4892787;29;20103;-76
2023/12/26 04:27:33;;;;;;;15.07;9.48;;;6.10;99.90;;;;;;4892597;29;21361;-76
2023/12/26 04:29:58;;;;;;;20.58;10.10;;;6.10;99.90;;;;;;4894154;29;20048;-77
2023/12/26 04:32:26;;;;;;;14.65;9.82;;;6.00;99.90;;;;;;4894889;29;20048;-76
2023/12/26 04:34:52;;;;;;;20.20;9.00;;;6.00;99.90;;;;;;4896626;29;20040;-78
2023/12/26 04:37:18;;;;;;;16.33;9.55;;;6.10;99.90;;;;;;4894513;29;20055;-77
2023/12/26 04:39:43;;;;;;;17.63;8.68;;;6.10;99.90;;;;;;4895533;29;20043;-76
2023/12/26 04:42:09;;;;;;;15.50;9.18;;;6.10;99.90;;;;;;4896497;29;20020;-77
2023/12/26 04:44:35;;;;;;;19.25;11.25;;;6.10;99.90;;;;;;4893345;29;20095;-76
2023/12/26 04:47:01;;;;;;;18.33;9.20;;;6.10;99.90;;;;;;4891919;29;20031;-76
2023/12/26 04:49:27;;;;;;;15.93;9.65;;;6.20;99.90;;;;;;4893783;29;20468;-78
2023/12/26 04:51:52;;;;;;;14.75;9.57;;;6.20;99.90;;;;;;4891744;29;20605;-77
2023/12/26 04:54:18;;;;;;;14.00;9.07;;;6.30;99.90;;;;;;4895064;29;20463;-76
2023/12/26 04:56:44;;;;;;;15.70;9.27;;;6.30;99.90;;;;;;4894533;29;20036;-76
2023/12/26 04:59:09;;;;;;;14.65;9.38;;;6.20;99.90;;;;;;4895495;29;20076;-76
2023/12/26 05:01:42;;;;;;;13.10;9.05;;;6.10;99.90;;;;;;4894646;29;20107;-76
2023/12/26 05:04:09;;;;;;;14.43;9.40;;;6.10;99.90;;;;;;4895321;29;20046;-76
2023/12/26 05:06:35;;;;;;;13.65;8.80;;;6.00;99.90;;;;;;4894050;29;20044;-76
2023/12/26 05:09:02;;;;;;;13.98;9.27;;;6.10;99.90;;;;;;4894497;29;20111;-77
2023/12/26 05:11:27;;;;;;;13.43;8.85;;;6.20;99.90;;;;;;4895526;29;20028;-77
2023/12/26 05:13:53;;;;;;;17.73;8.50;;;6.20;99.90;;;;;;4894691;29;20035;-76
2023/12/26 05:16:20;;;;;;;13.02;8.75;;;6.20;99.90;;;;;;4893683;29;20035;-76
2023/12/26 05:18:46;;;;;;;18.35;9.77;;;6.20;99.90;;;;;;4895545;29;20668;-77
2023/12/26 05:21:22;;;;;;;14.15;8.85;;;6.20;99.90;;;;;;4894994;29;21707;-77
2023/12/26 05:23:48;;;;;;;15.73;9.30;;;6.20;99.90;;;;;;4894796;29;20028;-76
2023/12/26 05:26:16;;;;;;;15.40;8.57;;;6.20;99.90;;;;;;4894164;29;20080;-76
2023/12/26 05:28:42;;;;;;;13.10;8.65;;;6.10;99.90;;;;;;4895612;29;20036;-76
2023/12/26 05:31:08;;;;;;;16.23;7.80;;;6.10;99.90;;;;;;4894694;29;20127;-77
2023/12/26 05:33:34;;;;;;;14.60;8.68;;;6.10;99.90;;;;;;4894550;29;20076;-76
2023/12/26 05:36:01;;;;;;;12.57;8.07;;;6.10;99.90;;;;;;4894514;29;20028;-76
2023/12/26 05:38:26;;;;;;;14.90;8.80;;;6.10;99.90;;;;;;4894185;29;20040;-77
2023/12/26 05:40:52;;;;;;;15.82;9.35;;;6.10;99.90;;;;;;4893861;29;20051;-77
2023/12/26 05:43:18;;;;;;;18.40;9.05;;;6.10;99.90;;;;;;4894506;29;20040;-77
2023/12/26 05:45:44;;;;;;;14.48;8.95;;;6.20;99.90;;;;;;4894810;29;20043;-76
2023/12/26 05:48:09;;;;;;;14.77;7.78;;;6.20;99.90;;;;;;4893823;29;21673;-76
2023/12/26 05:50:35;;;;;;;13.82;9.00;;;6.20;99.90;;;;;;4894808;29;20407;-77
2023/12/26 05:53:02;;;;;;;20.02;8.50;;;6.30;99.90;;;;;;4894426;29;20043;-77
2023/12/26 05:55:27;;;;;;;14.07;7.97;;;6.30;99.90;;;;;;4894748;29;20028;-76
2023/12/26 05:57:53;;;;;;;16.77;8.00;;;6.30;99.90;;;;;;4895176;29;20047;-77
2023/12/26 06:00:19;;;;;;;15.18;8.40;;;6.20;99.90;;;;;;4893673;29;20108;-77
2023/12/26 06:02:44;;;;;;;14.70;8.05;;;6.30;99.90;;;;;;4893748;29;20040;-76
2023/12/26 06:05:10;;;;;;;17.02;8.75;;;6.40;99.90;;;;;;4896061;29;20092;-77
2023/12/26 06:07:36;;;;;;;15.75;8.38;;;6.30;99.90;;;;;;4893025;29;20056;-76
2023/12/26 06:10:02;;;;;;;15.00;7.47;;;6.30;99.90;;;;;;4894102;29;20039;-76
2023/12/26 06:12:28;;;;;;;13.13;7.93;;;6.40;99.90;;;;;;4894617;29;20379;-76
2023/12/26 06:14:54;;;;;;;14.25;8.48;;;6.50;99.90;;;;;;4894450;29;20040;-76
2023/12/26 06:17:21;;;;;;;15.52;9.43;;;6.20;99.90;;;;;;4892872;29;20486;-76
2023/12/26 06:19:48;;;;;;;15.60;9.90;;;6.10;99.90;;;;;;4895524;29;20052;-76
2023/12/26 06:22:13;;;;;;;17.25;9.20;;;6.10;99.90;;;;;;4894115;29;20578;-76
2023/12/26 06:24:39;;;;;;;15.98;9.52;;;6.10;99.90;;;;;;4894120;29;20044;-77
2023/12/26 06:27:05;;;;;;;13.30;8.18;;;5.80;99.90;;;;;;4893801;29;20040;-76
2023/12/26 06:29:31;;;;;;;16.95;9.43;;;5.90;99.90;;;;;;4894343;29;20036;-76
2023/12/26 06:31:57;;;;;;;15.32;8.60;;;5.90;99.90;;;;;;4893591;29;21255;-77
2023/12/26 06:34:23;;;;;;;15.32;7.95;;;6.00;99.90;;;;;;4895396;29;20032;-76
2023/12/26 06:36:49;;;;;;;15.27;9.43;;;5.90;99.90;;;;;;4894319;29;20411;-76
2023/12/26 06:39:15;;;;;;;15.07;8.60;;;5.90;99.90;;;;;;4891131;29;20709;-76
2023/12/26 06:41:41;;;;;;;13.13;7.93;;;5.90;99.90;;;;;;4898300;29;20512;-77
2023/12/26 06:44:07;;;;;;;14.32;8.73;;;6.00;99.90;;;;;;4897627;29;20032;-76
2023/12/26 06:46:34;;;;;;;14.73;8.43;;;6.00;99.90;;;;;;4896897;29;20079;-76
2023/12/26 06:49:00;;;;;;;15.63;9.57;;;5.90;99.90;;;;;;4897242;29;20036;-76
2023/12/26 06:51:25;;;;;;;16.00;8.48;;;5.80;99.90;;;;;;4897427;29;20858;-77
2023/12/26 06:53:51;;;;;;;14.73;8.48;;;5.90;99.90;;;;;;4897676;29;20040;-77
2023/12/26 06:56:17;;;;;;;11.98;8.73;;;5.90;99.90;;;;;;4897984;29;20036;-77
2023/12/26 06:58:43;;;;;;;16.58;8.93;;;5.90;99.90;;;;;;4895164;29;20043;-76
2023/12/26 07:01:09;;;;;;;15.35;9.35;;;6.00;99.90;;;;;;4895412;29;20778;-76
2023/12/26 07:03:35;;;;;;;12.70;8.30;;;6.00;99.90;;;;;;4897042;29;20664;-76
2023/12/26 07:06:00;;;;;;;13.75;8.35;;;5.90;99.90;;;;;;4897090;29;20039;-77
2023/12/26 07:08:26;;;;;;;15.85;8.77;;;5.90;99.90;;;;;;4894721;29;20095;-77
2023/12/26 07:10:52;;;;;;;14.50;8.45;;;6.00;99.90;;;;;;4896925;29;20028;-76
2023/12/26 07:13:18;;;;;;;12.77;8.00;;;6.20;99.90;;;;;;4895244;29;20047;-76
2023/12/26 07:15:44;;;;;;;16.83;7.70;;;6.30;99.90;;;;;;4898045;29;20054;-77
2023/12/26 07:18:10;;;;;;;14.48;8.25;;;6.20;99.90;;;;;;4895452;29;20468;-77
2023/12/26 07:20:35;;;;;;;15.63;9.93;;;6.10;99.90;;;;;;4894383;29;20662;-76
2023/12/26 07:23:01;;;;;;;14.38;8.75;;;6.00;99.90;;;;;;4897787;29;20031;-77
2023/12/26 07:25:29;;;;;;;12.63;7.32;;;6.00;99.90;;;;;;4895201;29;20079;-76
2023/12/26 07:27:55;;;;;;;12.70;8.27;;;6.20;99.90;;;;;;4893785;29;20040;-76
2023/12/26 07:30:20;;;;;;;15.43;9.63;;;6.20;99.90;;;;;;4898305;29;20047;-76
2023/12/26 07:32:46;;;;;;;13.35;8.02;;;6.30;99.90;;;;;;4879992;29;20054;-76
2023/12/26 07:35:12;;;;;;;12.68;7.07;;;6.30;99.90;;;;;;4895629;29;20036;-76
2023/12/26 07:37:37;;;;;;;12.95;7.53;;;6.40;99.90;;;;;;4895137;29;20040;-77
2023/12/26 07:40:03;;;;;;;11.00;7.50;;;6.40;99.90;;;;;;4878732;29;20036;-77
2023/12/26 07:42:29;;;;;;;15.82;8.15;;;6.40;99.90;;;;;;4894928;29;20103;-76
2023/12/26 07:44:56;;;;;;;12.73;7.28;;;6.30;99.90;;;;;;4896944;29;20064;-76
2023/12/26 07:47:22;;;;;;;12.20;7.38;;;6.00;99.90;;;;;;4895110;29;20504;-76
2023/12/26 07:49:48;;;;;;;23.60;8.25;;;6.10;99.90;;;;;;4894623;29;20078;-77
2023/12/26 07:52:14;;;;;;;12.52;7.40;;;6.20;99.90;;;;;;4896362;29;20135;-77
2023/12/26 07:54:39;;;;;;;13.65;7.40;;;6.00;99.90;;;;;;4897094;29;20047;-77
2023/12/26 07:57:05;;;;;;;11.48;6.72;;;6.00;99.90;;;;;;4894077;29;20610;-76
2023/12/26 07:59:31;;;;;;;15.73;8.68;;;6.20;99.90;;;;;;4897636;29;20172;-78
2023/12/26 08:01:57;;;;;;;15.13;8.20;;;6.20;99.90;;;;;;4897115;29;20119;-76
2023/12/26 08:04:22;;;;;;;13.60;8.43;;;6.20;99.90;;;;;;4895970;29;20623;-77
2023/12/26 08:06:48;;;;;;;18.92;9.02;;;6.00;99.90;;;;;;4896330;29;20469;-77
2023/12/26 08:09:14;;;;;;;12.98;8.35;;;6.00;99.90;;;;;;4895106;29;20064;-77
2023/12/26 08:11:39;;;;;;;13.63;8.05;;;6.00;99.90;;;;;;4895816;29;20028;-77
2023/12/26 08:14:05;;;;;;;17.65;8.38;;;5.90;99.90;;;;;;4896354;29;20713;-77
2023/12/26 08:16:31;;;;;;;11.20;7.45;;;5.90;99.90;;;;;;4894211;29;20032;-76
2023/12/26 08:18:58;;;;;;;11.82;7.60;;;6.00;99.90;;;;;;4894190;29;20075;-77
2023/12/26 08:21:24;;;;;;;16.95;10.50;;;6.10;99.90;;;;;;4895905;29;20028;-76
2023/12/26 08:23:50;;;;;;;23.92;13.18;;;6.00;99.90;;;;;;4898910;29;20032;-77
2023/12/26 08:26:16;;;;;;;20.35;13.63;;;6.10;99.90;;;;;;4896702;29;20048;-73
2023/12/26 08:28:42;;;;;;;27.67;16.10;;;6.40;99.90;;;;;;4894738;29;20092;-74
2023/12/26 08:31:07;;;;;;;20.08;12.35;;;6.40;99.90;;;;;;4893243;29;20197;-74
2023/12/26 08:33:35;;;;;;;17.25;10.45;;;6.30;99.90;;;;;;4888447;29;20038;-73
2023/12/26 08:36:02;;;;;;;16.77;10.98;;;6.10;99.90;;;;;;4892083;29;20494;-74
2023/12/26 08:38:28;;;;;;;14.60;8.98;;;6.10;99.90;;;;;;4890647;29;20104;-74
2023/12/26 08:40:54;;;;;;;12.98;8.02;;;6.50;99.90;;;;;;4892169;29;20035;-74
2023/12/26 08:43:20;;;;;;;11.90;8.32;;;6.70;99.90;;;;;;4890900;29;20175;-74
2023/12/26 08:45:45;;;;;;;14.05;8.60;;;6.60;99.90;;;;;;4889591;29;20746;-75
2023/12/26 08:48:11;;;;;;;13.32;7.20;;;6.50;99.90;;;;;;4891166;29;20419;-75
2023/12/26 08:50:37;;;;;;;13.27;7.57;;;6.70;99.90;;;;;;4894717;29;20037;-75
2023/12/26 08:53:03;;;;;;;13.77;7.30;;;6.80;99.90;;;;;;4889306;29;20040;-76
2023/12/26 08:55:29;;;;;;;10.90;6.93;;;6.80;99.90;;;;;;4893733;29;20043;-76
2023/12/26 08:57:54;;;;;;;12.93;7.03;;;6.90;99.90;;;;;;4888956;29;20047;-76
2023/12/26 09:00:21;;;;;;;11.48;6.22;;;6.90;99.90;;;;;;4886873;29;20186;-76
2023/12/26 09:02:47;;;;;;;9.45;6.43;;;7.00;99.90;;;;;;4891663;29;20055;-76
2023/12/26 09:05:13;;;;;;;13.18;7.43;;;7.00;99.90;;;;;;4889346;29;20059;-76
2023/12/26 09:07:40;;;;;;;10.82;6.72;;;7.10;99.90;;;;;;4889129;29;20056;-77
2023/12/26 09:10:06;;;;;;;9.55;6.90;;;7.10;99.90;;;;;;4891079;29;20501;-77
2023/12/26 09:12:32;;;;;;;10.70;6.13;;;7.10;99.90;;;;;;4890596;29;20043;-77
2023/12/26 09:14:57;;;;;;;12.30;6.95;;;7.00;99.90;;;;;;4889223;29;20304;-76
2023/12/26 09:17:23;;;;;;;13.35;6.82;;;7.00;99.90;;;;;;4889217;29;20542;-77
2023/12/26 09:19:49;;;;;;;11.85;6.82;;;7.10;99.90;;;;;;4889861;29;20075;-76
2023/12/26 09:22:15;;;;;;;13.60;6.78;;;7.10;99.90;;;;;;4889446;29;20091;-76
2023/12/26 09:24:44;;;;;;;14.20;6.32;;;7.10;99.90;;;;;;4891472;29;20032;-80
2023/12/26 09:27:10;;;;;;;11.65;7.00;;;7.10;99.90;;;;;;4891973;29;20044;-76
2023/12/26 09:29:36;;;;;;;13.77;7.72;;;7.20;99.90;;;;;;4890493;29;20136;-76
2023/12/26 09:32:02;;;;;;;13.93;7.75;;;7.20;99.90;;;;;;4890177;29;20048;-74
2023/12/26 09:34:27;;;;;;;12.65;7.05;;;7.20;99.90;;;;;;4890870;29;20028;-77
2023/12/26 09:36:53;;;;;;;11.95;7.22;;;7.30;99.90;;;;;;4893081;29;20484;-75
2023/12/26 09:39:19;;;;;;;12.05;6.72;;;7.30;99.90;;;;;;4894428;29;20037;-77
2023/12/26 09:41:55;;;;;;;14.95;8.77;;;7.30;99.90;;;;;;4893990;29;20040;-76
2023/12/26 09:44:21;;;;;;;16.10;9.60;;;7.20;99.90;;;;;;4891706;29;20051;-76
2023/12/26 09:46:47;;;;;;;15.50;8.48;;;7.00;99.90;;;;;;4897492;29;20659;-77
2023/12/26 09:49:13;;;;;;;15.07;9.43;;;7.10;99.90;;;;;;4897359;29;20040;-76
2023/12/26 09:51:44;;;;;;;17.73;10.05;;;7.20;99.90;;;;;;4897468;29;20036;-76
2023/12/26 09:54:10;;;;;;;18.10;9.52;;;7.30;99.90;;;;;;4897154;29;20048;-75
2023/12/26 09:56:42;;;;;;;17.98;9.98;;;7.30;99.90;;;;;;4895282;29;20047;-75
2023/12/26 09:59:09;;;;;;;18.50;9.85;;;7.40;99.90;;;;;;4895997;29;20701;-76
2023/12/26 10:01:35;;;;;;;17.27;8.98;;;7.50;99.90;;;;;;4893529;29;20570;-76
2023/12/26 10:04:03;;;;;;;12.93;8.70;;;7.60;99.90;;;;;;4893210;29;20044;-77
2023/12/26 10:06:29;;;;;;;15.93;8.18;;;7.70;99.90;;;;;;4895660;29;20522;-77
2023/12/26 10:08:55;;;;;;;16.77;9.48;;;7.70;99.90;;;;;;4899021;29;20583;-76
2023/12/26 10:11:21;;;;;;;15.38;8.50;;;7.60;99.90;;;;;;4902713;29;20087;-78
2023/12/26 10:13:52;;;;;;;15.30;10.13;;;7.60;99.90;;;;;;4903483;29;20039;-76
2023/12/26 10:16:19;;;;;;;15.85;8.85;;;7.60;99.90;;;;;;4900768;29;20032;-77
2023/12/26 10:18:45;;;;;;;16.10;8.45;;;7.60;99.90;;;;;;4899603;29;20040;-77
2023/12/26 10:21:11;;;;;;;16.40;9.13;;;7.70;99.90;;;;;;4900174;29;20150;-77
2023/12/26 10:23:37;;;;;;;14.27;9.13;;;7.70;99.90;;;;;;4899368;29;20947;-77
2023/12/26 10:26:03;;;;;;;14.48;9.13;;;7.80;99.90;;;;;;4899197;29;20032;-78
2023/12/26 10:28:29;;;;;;;14.07;8.57;;;7.80;99.90;;;;;;4900047;29;20036;-77
2023/12/26 10:30:55;;;;;;;13.73;7.70;;;7.70;99.90;;;;;;4900535;29;20035;-77
2023/12/26 10:33:28;;;;;;;16.42;7.60;;;7.80;99.90;;;;;;4899622;29;20036;-77
2023/12/26 10:36:06;;;;;;;13.85;8.02;;;8.00;99.90;;;;;;4899895;29;20032;-76
2023/12/26 10:38:32;;;;;;;14.68;8.55;;;8.10;99.90;;;;;;4895045;29;20048;-75
2023/12/26 10:41:04;;;;;;;15.07;10.10;;;7.70;99.90;;;;;;4899129;29;20713;-74
2023/12/26 10:43:32;;;;;;;13.88;8.95;;;7.70;99.90;;;;;;4899821;29;20050;-76
2023/12/26 10:45:59;;;;;;;12.07;8.27;;;7.80;99.90;;;;;;4899784;29;20040;-76
2023/12/26 10:48:32;;;;;;;12.13;8.00;;;7.90;99.90;;;;;;4899877;29;21392;-76
2023/12/26 10:50:59;;;;;;;14.73;9.10;;;8.00;99.90;;;;;;4900557;29;20036;-75
2023/12/26 10:53:31;;;;;;;14.48;9.00;;;8.00;99.90;;;;;;4902357;29;20373;-75
2023/12/26 10:55:58;;;;;;;11.95;7.63;;;8.00;99.90;;;;;;4900869;29;20127;-76
2023/12/26 10:58:29;;;;;;;12.05;8.52;;;7.90;99.90;;;;;;4902543;29;20474;-74
2023/12/26 11:00:55;;;;;;;14.50;9.82;;;8.00;99.90;;;;;;4902466;29;20029;-75
2023/12/26 11:03:21;;;;;;;14.75;9.65;;;8.00;99.90;;;;;;4901681;29;20035;-75
2023/12/26 11:05:47;;;;;;;12.70;8.20;;;8.10;99.90;;;;;;4902538;29;20045;-76
2023/12/26 11:08:12;;;;;;;15.98;7.90;;;8.20;99.90;;;;;;4902284;29;20040;-76
2023/12/26 11:10:38;;;;;;;13.00;8.88;;;8.20;99.90;;;;;;4902505;29;20031;-75
2023/12/26 11:13:04;;;;;;;15.52;9.98;;;8.30;99.90;;;;;;4902565;29;20383;-75
2023/12/26 11:15:31;;;;;;;15.07;9.05;;;8.20;99.90;;;;;;4901080;29;20426;-75
2023/12/26 11:17:58;;;;;;;17.70;8.88;;;8.30;99.90;;;;;;4900395;29;20058;-75
2023/12/26 11:20:24;;;;;;;18.05;10.25;;;8.50;99.90;;;;;;4901309;29;20056;-74
2023/12/26 11:22:49;;;;;;;16.42;9.07;;;8.20;99.90;;;;;;4901293;29;20395;-77
2023/12/26 11:25:15;;;;;;;15.45;8.20;;;8.30;99.90;;;;;;4901760;29;20114;-76
2023/12/26 11:27:41;;;;;;;16.45;9.00;;;8.40;99.90;;;;;;4899486;29;20044;-76
2023/12/26 11:30:07;;;;;;;14.52;9.50;;;8.40;99.90;;;;;;4901027;29;21290;-76
2023/12/26 11:32:33;;;;;;;13.73;8.27;;;8.40;99.90;;;;;;4901624;29;20035;-76
2023/12/26 11:34:58;;;;;;;12.35;7.75;;;8.40;99.90;;;;;;4901858;29;20501;-76
2023/12/26 11:37:24;;;;;;;12.07;7.07;;;8.30;99.90;;;;;;4901627;29;20067;-76
2023/12/26 11:39:50;;;;;;;14.38;7.28;;;8.30;99.90;;;;;;4902045;29;20042;-76
2023/12/26 11:42:16;;;;;;;13.07;8.10;;;8.30;99.90;;;;;;4901554;29;20031;-76
2023/12/26 11:44:42;;;;;;;11.98;7.55;;;8.20;99.90;;;;;;4901330;29;20599;-76
2023/12/26 11:47:07;;;;;;;15.38;8.23;;;8.30;99.90;;;;;;4901774;29;21581;-76
2023/12/26 11:49:33;;;;;;;13.10;7.25;;;8.30;99.90;;;;;;4901556;29;20079;-76
2023/12/26 11:51:59;;;;;;;13.27;8.20;;;8.40;99.90;;;;;;4901508;29;20111;-76
2023/12/26 11:54:25;;;;;;;12.77;8.00;;;8.40;99.90;;;;;;4900966;29;20051;-76
2023/12/26 11:56:50;;;;;;;15.18;8.13;;;8.30;99.90;;;;;;4901197;29;20060;-76
2023/12/26 11:59:16;;;;;;;14.10;8.15;;;8.40;99.90;;;;;;4901211;29;20100;-76
2023/12/26 12:01:41;;;;;;;14.77;8.80;;;8.50;99.90;;;;;;4901015;29;20091;-76
2023/12/26 12:04:07;;;;;;;12.93;8.20;;;8.50;99.90;;;;;;4901484;29;20039;-76
2023/12/26 12:06:33;;;;;;;13.45;8.70;;;8.50;99.90;;;;;;4900774;29;20058;-76
2023/12/26 12:09:05;;;;;;;15.05;8.73;;;8.50;99.90;;;;;;4901055;29;20036;-76
2023/12/26 12:11:32;;;;;;;14.27;8.88;;;8.50;99.90;;;;;;4901025;29;20032;-76
2023/12/26 12:13:58;;;;;;;10.80;6.97;;;8.60;99.90;;;;;;4901382;29;20028;-76
2023/12/26 12:16:24;;;;;;;11.65;7.40;;;8.60;99.90;;;;;;4901233;29;20036;-76
2023/12/26 12:19:00;;;;;;;13.15;7.95;;;8.80;99.90;;;;;;4900703;29;20040;-77
2023/12/26 12:21:38;;;;;;;15.15;7.88;;;8.80;99.90;;;;;;4900689;29;20690;-76
2023/12/26 12:24:05;;;;;;;15.00;8.68;;;8.80;99.90;;;;;;4901170;29;20063;-76
2023/12/26 12:27:05;;;;;;;16.75;9.43;;;8.80;99.90;;;;;;4900695;29;20040;-76
2023/12/26 12:29:57;;;;;;;12.20;8.75;;;8.90;99.90;;;;;;4901174;29;20039;-76
2023/12/26 12:32:29;;;;;;;12.80;8.75;;;8.80;99.90;;;;;;4900484;29;20749;-76
2023/12/26 12:35:17;;;;;;;16.80;9.95;;;8.80;99.90;;;;;;4900751;29;20035;-76
2023/12/26 12:37:46;;;;;;;16.67;10.30;;;8.80;99.90;;;;;;4896728;29;20042;-76
2023/12/26 12:40:11;;;;;;;15.85;8.85;;;8.90;99.90;;;;;;4900076;29;20475;-76
2023/12/26 12:42:37;;;;;;;16.73;11.10;;;9.00;99.90;;;;;;4900531;29;20131;-76